Time;durP1;ratioP1;P1;durP2;ratioP2;P2;SDS_P1;SDS_P2;PMS_P1;PMS_P2;Temp;Humidity;BMP_temperature;BMP_pressure;BME280_temperature;BME280_humidity;BME280_pressure;Samples;Min_cycle;Max_cycle;Signal;HPM_P1;HPM_P2
2021/06/14 00:02:10;;;;;;;11.02;5.00;;;;;;;;;;3582747;40;20055;-61
2021/06/14 00:04:36;;;;;;;9.18;4.68;;;;;;;;;;3581529;40;20048;-61
2021/06/14 00:07:02;;;;;;;8.43;4.63;;;;;;;;;;3580840;40;20103;-61
2021/06/14 00:09:30;;;;;;;6.80;4.55;;;;;;;;;;3581608;40;20372;-61
2021/06/14 00:11:55;;;;;;;10.13;5.00;;;;;;;;;;3571541;40;20028;-61
2021/06/14 00:14:20;;;;;;;7.28;4.63;;;;;;;;;;3580972;40;20064;-62
2021/06/14 00:16:47;;;;;;;8.90;5.22;;;;;;;;;;3582111;40;20121;-62
2021/06/14 00:19:14;;;;;;;7.55;4.40;;;;;;;;;;3574277;40;20033;-61
2021/06/14 00:21:39;;;;;;;14.00;5.40;;;;;;;;;;3582358;40;20036;-61
2021/06/14 00:24:06;;;;;;;10.85;5.07;;;;;;;;;;3580159;40;20136;-61
2021/06/14 00:26:32;;;;;;;9.90;5.32;;;;;;;;;;3581728;40;20040;-61
2021/06/14 00:28:57;;;;;;;12.70;4.97;;;;;;;;;;3573491;40;20515;-61
2021/06/14 00:31:23;;;;;;;8.80;5.07;;;;;;;;;;3581078;40;20025;-61
2021/06/14 00:33:49;;;;;;;6.80;4.65;;;;;;;;;;3581137;40;20036;-61
2021/06/14 00:36:15;;;;;;;8.15;4.97;;;;;;;;;;3581364;40;20328;-61
2021/06/14 00:38:40;;;;;;;7.70;4.70;;;;;;;;;;3580846;40;20054;-61
2021/06/14 00:41:07;;;;;;;8.32;5.68;;;;;;;;;;3582144;40;20055;-61
2021/06/14 00:43:34;;;;;;;8.70;5.40;;;;;;;;;;3580501;40;20453;-61
2021/06/14 00:45:59;;;;;;;5.47;4.32;;;;;;;;;;3580294;40;20055;-61
2021/06/14 00:48:26;;;;;;;7.00;4.57;;;;;;;;;;3580463;40;20050;-62
2021/06/14 00:50:57;;;;;;;8.48;5.40;;;;;;;;;;3580050;40;20033;-61
2021/06/14 00:53:31;;;;;;;9.88;5.28;;;;;;;;;;3580154;40;20091;-62
2021/06/14 00:55:58;;;;;;;9.07;4.82;;;;;;;;;;3581280;40;20390;-61
2021/06/14 00:58:24;;;;;;;7.15;4.30;;;;;;;;;;3579401;40;20029;-61
2021/06/14 01:00:50;;;;;;;8.00;4.40;;;;;;;;;;3582102;40;20056;-63
2021/06/14 01:03:15;;;;;;;8.40;4.95;;;;;;;;;;3581088;40;20041;-61
2021/06/14 01:05:45;;;;;;;9.77;5.28;;;;;;;;;;3571919;40;20045;-61
2021/06/14 01:08:11;;;;;;;7.43;4.72;;;;;;;;;;3570847;40;20032;-61
2021/06/14 01:10:38;;;;;;;9.77;5.15;;;;;;;;;;3581665;40;20276;-61
2021/06/14 01:13:22;;;;;;;8.32;5.35;;;;;;;;;;3581561;40;20032;-61
2021/06/14 01:15:59;;;;;;;8.90;5.20;;;;;;;;;;3576046;40;20182;-61
2021/06/14 01:18:47;;;;;;;9.73;5.00;;;;;;;;;;3572838;40;20039;-61
2021/06/14 01:21:23;;;;;;;9.70;4.93;;;;;;;;;;3581901;40;20061;-61
2021/06/14 01:24:07;;;;;;;8.32;5.00;;;;;;;;;;3582555;40;20044;-61
2021/06/14 01:26:42;;;;;;;8.15;5.43;;;;;;;;;;3580802;40;20062;-61
2021/06/14 01:29:09;;;;;;;8.75;5.82;;;;;;;;;;3581663;40;20049;-61
2021/06/14 01:31:37;;;;;;;7.22;5.05;;;;;;;;;;3579764;40;20044;-61
2021/06/14 01:34:04;;;;;;;7.80;5.43;;;;;;;;;;3573201;40;20574;-62
2021/06/14 01:36:33;;;;;;;7.78;5.30;;;;;;;;;;3580803;40;20080;-62
2021/06/14 01:38:59;;;;;;;10.73;4.95;;;;;;;;;;3580962;40;20300;-62
2021/06/14 01:41:27;;;;;;;6.97;5.15;;;;;;;;;;3580237;40;20048;-62
2021/06/14 01:43:53;;;;;;;9.35;5.45;;;;;;;;;;3575334;40;20055;-62
2021/06/14 01:46:23;;;;;;;7.55;4.88;;;;;;;;;;3572264;40;20169;-62
2021/06/14 01:48:50;;;;;;;7.43;4.97;;;;;;;;;;3581201;40;20033;-62
2021/06/14 01:51:20;;;;;;;7.47;5.43;;;;;;;;;;3581715;40;20625;-62
2021/06/14 01:54:02;;;;;;;7.32;5.50;;;;;;;;;;3580613;40;20126;-62
2021/06/14 01:56:30;;;;;;;8.15;5.38;;;;;;;;;;3579416;40;20041;-62
2021/06/14 01:59:00;;;;;;;9.10;5.13;;;;;;;;;;3573078;40;20387;-62
2021/06/14 02:01:27;;;;;;;7.95;5.25;;;;;;;;;;3581023;40;20053;-62
2021/06/14 02:03:54;;;;;;;7.70;4.28;;;;;;;;;;3577274;40;20021;-62
2021/06/14 02:06:20;;;;;;;11.10;5.13;;;;;;;;;;3579649;40;20045;-62
2021/06/14 02:08:47;;;;;;;11.05;5.60;;;;;;;;;;3580074;40;20039;-62
2021/06/14 02:11:13;;;;;;;7.00;5.30;;;;;;;;;;3579863;40;20092;-62
2021/06/14 02:13:38;;;;;;;7.63;5.32;;;;;;;;;;3583382;40;20130;-62
2021/06/14 02:16:04;;;;;;;8.38;5.65;;;;;;;;;;3583458;40;20043;-62
2021/06/14 02:18:30;;;;;;;8.07;5.00;;;;;;;;;;3581384;40;20085;-62
2021/06/14 02:20:55;;;;;;;6.68;4.50;;;;;;;;;;3580736;40;20049;-63
2021/06/14 02:23:21;;;;;;;7.07;4.90;;;;;;;;;;3580533;40;20043;-63
2021/06/14 02:25:46;;;;;;;10.52;5.22;;;;;;;;;;3580982;40;20254;-63
2021/06/14 02:28:12;;;;;;;8.90;5.72;;;;;;;;;;3582263;40;20032;-63
2021/06/14 02:30:37;;;;;;;8.95;5.63;;;;;;;;;;3581729;40;20292;-63
2021/06/14 02:33:03;;;;;;;8.30;5.13;;;;;;;;;;3581673;40;20021;-62
2021/06/14 02:35:28;;;;;;;8.82;5.13;;;;;;;;;;3581855;40;20434;-63
2021/06/14 02:38:06;;;;;;;9.30;5.10;;;;;;;;;;3581263;40;20363;-62
2021/06/14 02:40:32;;;;;;;10.45;5.70;;;;;;;;;;3581502;40;20209;-62
2021/06/14 02:43:01;;;;;;;9.20;4.72;;;;;;;;;;3572320;40;20045;-62
2021/06/14 02:45:27;;;;;;;10.13;4.30;;;;;;;;;;3571106;40;20149;-62
2021/06/14 02:47:54;;;;;;;13.43;5.72;;;;;;;;;;3579269;40;20055;-62
2021/06/14 02:50:21;;;;;;;13.35;6.10;;;;;;;;;;3579961;40;20028;-62
2021/06/14 02:52:50;;;;;;;14.15;5.70;;;;;;;;;;3582183;40;20087;-62
2021/06/14 02:55:18;;;;;;;11.45;5.55;;;;;;;;;;3581416;40;20029;-62
2021/06/14 02:57:49;;;;;;;8.75;5.40;;;;;;;;;;3583161;40;20028;-62
2021/06/14 03:00:15;;;;;;;8.63;5.25;;;;;;;;;;3570426;40;20065;-62
2021/06/14 03:02:41;;;;;;;10.23;5.97;;;;;;;;;;3582095;40;20048;-62
2021/06/14 03:05:08;;;;;;;7.65;5.53;;;;;;;;;;3582797;40;20044;-62
2021/06/14 03:07:34;;;;;;;9.70;5.75;;;;;;;;;;3581950;40;20122;-62
2021/06/14 03:09:59;;;;;;;9.50;5.30;;;;;;;;;;3576224;40;20045;-62
2021/06/14 03:12:27;;;;;;;8.50;5.78;;;;;;;;;;3581747;40;20036;-62
2021/06/14 03:14:52;;;;;;;14.23;5.65;;;;;;;;;;3582167;40;20380;-62
2021/06/14 03:17:19;;;;;;;8.90;5.15;;;;;;;;;;3582208;40;20081;-62
2021/06/14 03:19:46;;;;;;;12.75;5.95;;;;;;;;;;3581965;40;20068;-62
2021/06/14 03:22:12;;;;;;;10.00;6.38;;;;;;;;;;3573509;40;20048;-62
2021/06/14 03:24:39;;;;;;;13.80;5.82;;;;;;;;;;3581684;40;20118;-62
2021/06/14 03:27:05;;;;;;;9.68;5.53;;;;;;;;;;3580870;40;20028;-62
2021/06/14 03:29:32;;;;;;;8.15;4.72;;;;;;;;;;3580491;40;20051;-62
2021/06/14 03:31:58;;;;;;;6.85;5.15;;;;;;;;;;3582120;40;20774;-62
2021/06/14 03:34:28;;;;;;;9.20;6.45;;;;;;;;;;3581453;40;20026;-62
2021/06/14 03:36:55;;;;;;;9.50;5.75;;;;;;;;;;3580747;40;20033;-62
2021/06/14 03:39:21;;;;;;;8.32;5.40;;;;;;;;;;3580928;40;20045;-62
2021/06/14 03:41:48;;;;;;;10.02;5.60;;;;;;;;;;3581395;40;20045;-62
2021/06/14 03:44:15;;;;;;;6.93;4.97;;;;;;;;;;3574543;40;20044;-62
2021/06/14 03:46:41;;;;;;;8.02;4.65;;;;;;;;;;3582194;40;20043;-62
2021/06/14 03:49:07;;;;;;;10.40;5.63;;;;;;;;;;3580236;40;20072;-62
2021/06/14 03:51:33;;;;;;;10.50;5.00;;;;;;;;;;3582159;40;20288;-62
2021/06/14 03:53:59;;;;;;;9.38;5.60;;;;;;;;;;3581753;40;20032;-62
2021/06/14 03:56:27;;;;;;;8.23;5.78;;;;;;;;;;3581282;40;20073;-62
2021/06/14 03:58:52;;;;;;;7.47;5.82;;;;;;;;;;3582266;40;20033;-62
2021/06/14 04:01:18;;;;;;;11.20;5.43;;;;;;;;;;3580192;40;20080;-62
2021/06/14 04:03:48;;;;;;;9.55;6.10;;;;;;;;;;3580865;40;20033;-62
2021/06/14 04:06:13;;;;;;;8.20;5.10;;;;;;;;;;3581430;40;20047;-62
2021/06/14 04:08:39;;;;;;;8.88;5.35;;;;;;;;;;3580107;40;20037;-62
2021/06/14 04:11:04;;;;;;;9.65;5.53;;;;;;;;;;3580037;40;20033;-62
2021/06/14 04:13:30;;;;;;;9.15;5.82;;;;;;;;;;3580684;40;20126;-62
2021/06/14 04:15:55;;;;;;;9.10;5.70;;;;;;;;;;3580677;40;20141;-62
2021/06/14 04:18:21;;;;;;;14.88;5.68;;;;;;;;;;3580926;40;20039;-61
2021/06/14 04:20:46;;;;;;;9.55;5.13;;;;;;;;;;3581023;40;20350;-62
2021/06/14 04:23:12;;;;;;;12.90;5.43;;;;;;;;;;3581747;40;20041;-62
2021/06/14 04:25:37;;;;;;;8.27;5.35;;;;;;;;;;3581086;40;20029;-62
2021/06/14 04:28:06;;;;;;;8.45;5.00;;;;;;;;;;3582036;40;20138;-62
2021/06/14 04:30:32;;;;;;;9.50;5.05;;;;;;;;;;3581777;40;20055;-62
2021/06/14 04:32:57;;;;;;;9.25;5.53;;;;;;;;;;3571899;40;20032;-62
2021/06/14 04:35:22;;;;;;;8.05;4.95;;;;;;;;;;3581532;40;20041;-62
2021/06/14 04:37:48;;;;;;;8.13;5.53;;;;;;;;;;3580217;40;20114;-62
2021/06/14 04:40:13;;;;;;;7.15;4.88;;;;;;;;;;3580808;40;20052;-62
2021/06/14 04:42:39;;;;;;;8.95;4.97;;;;;;;;;;3581106;40;20048;-62
2021/06/14 04:45:05;;;;;;;8.55;5.05;;;;;;;;;;3580505;40;20044;-62
2021/06/14 04:47:30;;;;;;;8.52;4.68;;;;;;;;;;3581428;40;20053;-61
2021/06/14 04:49:57;;;;;;;6.60;4.55;;;;;;;;;;3581360;40;20060;-62
2021/06/14 04:52:23;;;;;;;10.85;5.38;;;;;;;;;;3580165;40;20055;-61
2021/06/14 04:54:48;;;;;;;6.80;4.22;;;;;;;;;;3580770;40;20384;-61
2021/06/14 04:57:14;;;;;;;8.35;5.22;;;;;;;;;;3579549;40;20438;-61
2021/06/14 04:59:39;;;;;;;13.15;5.53;;;;;;;;;;3581662;40;20036;-62
2021/06/14 05:02:05;;;;;;;8.43;4.28;;;;;;;;;;3582408;40;20037;-61
2021/06/14 05:04:31;;;;;;;9.75;4.57;;;;;;;;;;3580977;40;20048;-61
2021/06/14 05:06:57;;;;;;;7.07;4.60;;;;;;;;;;3573586;40;20387;-61
2021/06/14 05:09:22;;;;;;;11.93;4.72;;;;;;;;;;3581200;40;20048;-61
2021/06/14 05:11:48;;;;;;;6.40;3.90;;;;;;;;;;3582205;40;20145;-61
2021/06/14 05:14:15;;;;;;;9.60;4.82;;;;;;;;;;3582317;40;20052;-61
2021/06/14 05:16:41;;;;;;;6.93;4.28;;;;;;;;;;3582436;40;20134;-61
2021/06/14 05:19:06;;;;;;;8.55;4.78;;;;;;;;;;3581323;40;20053;-61
2021/06/14 05:21:32;;;;;;;9.27;4.20;;;;;;;;;;3570510;40;20047;-61
2021/06/14 05:23:57;;;;;;;6.65;4.38;;;;;;;;;;3581070;40;20052;-61
2021/06/14 05:26:23;;;;;;;6.88;4.32;;;;;;;;;;3582036;40;20118;-61
2021/06/14 05:28:48;;;;;;;6.05;3.67;;;;;;;;;;3580544;40;20041;-60
2021/06/14 05:31:13;;;;;;;7.63;4.30;;;;;;;;;;3571751;40;20092;-60
2021/06/14 05:33:39;;;;;;;7.93;4.78;;;;;;;;;;3581421;40;20266;-60
2021/06/14 05:36:05;;;;;;;7.40;4.43;;;;;;;;;;3580538;40;20037;-60
2021/06/14 05:38:30;;;;;;;7.97;4.07;;;;;;;;;;3580991;40;20725;-61
2021/06/14 05:40:56;;;;;;;7.43;4.35;;;;;;;;;;3581611;40;20051;-60
2021/06/14 05:43:22;;;;;;;6.95;4.10;;;;;;;;;;3580420;40;20044;-60
2021/06/14 05:45:47;;;;;;;8.95;4.65;;;;;;;;;;3580865;40;20036;-60
2021/06/14 05:48:13;;;;;;;10.52;4.47;;;;;;;;;;3579236;40;20037;-61
2021/06/14 05:50:38;;;;;;;13.60;4.70;;;;;;;;;;3580496;40;20041;-61
2021/06/14 05:53:04;;;;;;;10.05;4.32;;;;;;;;;;3581272;40;20040;-61
2021/06/14 05:55:30;;;;;;;7.80;4.15;;;;;;;;;;3581863;40;20029;-61
2021/06/14 05:57:56;;;;;;;7.57;3.92;;;;;;;;;;3581390;40;20636;-61
2021/06/14 06:00:22;;;;;;;6.43;3.92;;;;;;;;;;3580683;40;20037;-60
2021/06/14 06:02:47;;;;;;;5.57;3.97;;;;;;;;;;3571516;40;20048;-60
2021/06/14 06:05:13;;;;;;;9.30;4.22;;;;;;;;;;3579440;40;20033;-60
2021/06/14 06:07:38;;;;;;;12.02;4.47;;;;;;;;;;3570943;40;20402;-60
2021/06/14 06:10:05;;;;;;;10.43;4.38;;;;;;;;;;3580968;40;20053;-60
2021/06/14 06:12:31;;;;;;;9.18;4.90;;;;;;;;;;3580952;40;20183;-60
2021/06/14 06:14:57;;;;;;;7.97;3.33;;;;;;;;;;3579302;40;20728;-60
2021/06/14 06:17:22;;;;;;;7.50;4.15;;;;;;;;;;3580623;40;20381;-60
2021/06/14 06:19:47;;;;;;;8.40;3.90;;;;;;;;;;3579895;40;20037;-61
2021/06/14 06:22:14;;;;;;;8.40;3.80;;;;;;;;;;3579186;40;20048;-61
2021/06/14 06:24:40;;;;;;;9.85;4.07;;;;;;;;;;3580619;40;20037;-61
2021/06/14 06:27:05;;;;;;;6.40;3.72;;;;;;;;;;3582393;40;20064;-61
2021/06/14 06:29:31;;;;;;;9.90;4.20;;;;;;;;;;3580783;40;20043;-61
2021/06/14 06:31:57;;;;;;;8.23;3.90;;;;;;;;;;3582654;40;20033;-61
2021/06/14 06:34:22;;;;;;;5.53;3.63;;;;;;;;;;3582397;40;20126;-61
2021/06/14 06:36:48;;;;;;;7.00;4.45;;;;;;;;;;3583177;40;20041;-61
2021/06/14 06:39:13;;;;;;;8.65;3.85;;;;;;;;;;3582536;40;20049;-61
2021/06/14 06:41:39;;;;;;;7.25;3.63;;;;;;;;;;3581974;40;20092;-69
2021/06/14 06:44:04;;;;;;;6.22;3.53;;;;;;;;;;3581688;40;20048;-69
2021/06/14 06:46:29;;;;;;;8.75;3.50;;;;;;;;;;3581010;40;20049;-69
2021/06/14 06:48:55;;;;;;;6.70;3.30;;;;;;;;;;3581609;40;20052;-69
2021/06/14 06:51:20;;;;;;;9.38;3.25;;;;;;;;;;3583153;40;20043;-69
2021/06/14 06:53:46;;;;;;;7.35;3.88;;;;;;;;;;3584054;40;20125;-68
2021/06/14 06:56:11;;;;;;;5.20;2.88;;;;;;;;;;3584499;40;20368;-69
2021/06/14 06:58:36;;;;;;;8.18;3.75;;;;;;;;;;3581581;40;20037;-69
2021/06/14 07:01:03;;;;;;;8.75;3.50;;;;;;;;;;3583645;40;20049;-68
2021/06/14 07:03:28;;;;;;;7.60;3.10;;;;;;;;;;3579921;40;20403;-68
2021/06/14 07:05:54;;;;;;;6.20;3.58;;;;;;;;;;3582012;40;20084;-68
2021/06/14 07:08:19;;;;;;;4.90;2.80;;;;;;;;;;3582878;40;20055;-68
2021/06/14 07:10:45;;;;;;;6.05;2.90;;;;;;;;;;3582266;40;20035;-68
2021/06/14 07:13:12;;;;;;;7.10;3.60;;;;;;;;;;3581871;40;20045;-67
2021/06/14 07:15:38;;;;;;;5.10;3.00;;;;;;;;;;3582451;40;20033;-67
2021/06/14 07:18:03;;;;;;;6.30;3.50;;;;;;;;;;3582407;40;20033;-70
2021/06/14 07:20:29;;;;;;;5.88;2.97;;;;;;;;;;3581413;40;20047;-68
2021/06/14 07:22:55;;;;;;;6.32;3.58;;;;;;;;;;3580788;40;20124;-68
2021/06/14 07:25:21;;;;;;;8.07;3.47;;;;;;;;;;3582109;40;20048;-68
2021/06/14 07:27:46;;;;;;;8.30;2.95;;;;;;;;;;3582163;40;20351;-68
2021/06/14 07:30:14;;;;;;;6.90;3.00;;;;;;;;;;3580790;40;20041;-68
2021/06/14 07:32:39;;;;;;;5.72;2.95;;;;;;;;;;3582864;40;20029;-67
2021/06/14 07:35:05;;;;;;;7.45;2.95;;;;;;;;;;3581031;40;20035;-68
2021/06/14 07:37:31;;;;;;;9.25;3.50;;;;;;;;;;3579555;40;20045;-68
2021/06/14 07:39:56;;;;;;;6.32;2.85;;;;;;;;;;3581213;40;20063;-68
2021/06/14 07:42:23;;;;;;;5.80;2.95;;;;;;;;;;3580250;40;20050;-68
2021/06/14 07:44:48;;;;;;;7.13;3.30;;;;;;;;;;3576554;40;20064;-66
2021/06/14 07:47:13;;;;;;;8.55;3.35;;;;;;;;;;3580613;40;20304;-68
2021/06/14 07:49:41;;;;;;;10.13;3.40;;;;;;;;;;3579672;40;20232;-67
2021/06/14 07:52:07;;;;;;;9.50;3.08;;;;;;;;;;3578534;40;20046;-66
2021/06/14 07:54:33;;;;;;;7.35;3.38;;;;;;;;;;3579915;40;20555;-65
2021/06/14 07:56:59;;;;;;;4.97;3.10;;;;;;;;;;3571228;40;20065;-65
2021/06/14 07:59:25;;;;;;;7.75;2.83;;;;;;;;;;3581747;40;20029;-67
2021/06/14 08:01:50;;;;;;;5.85;3.28;;;;;;;;;;3582187;40;20052;-69
2021/06/14 08:04:16;;;;;;;8.60;3.22;;;;;;;;;;3582816;40;20134;-67
2021/06/14 08:06:41;;;;;;;9.00;3.47;;;;;;;;;;3580882;40;20061;-67
2021/06/14 08:09:09;;;;;;;6.88;2.92;;;;;;;;;;3582252;40;20578;-65
2021/06/14 08:11:35;;;;;;;5.50;3.05;;;;;;;;;;3582460;40;20060;-66
2021/06/14 08:14:01;;;;;;;7.72;3.15;;;;;;;;;;3579745;40;20143;-64
2021/06/14 08:16:27;;;;;;;5.70;3.03;;;;;;;;;;3581810;40;20044;-64
2021/06/14 08:19:07;;;;;;;4.63;2.83;;;;;;;;;;3581810;40;20047;-64
2021/06/14 08:27:17;;;;;;;6.13;2.90;;;;;;;;;;3578842;40;20043;-65
2021/06/14 08:29:43;;;;;;;7.60;2.97;;;;;;;;;;3581376;40;20029;-65
2021/06/14 08:32:08;;;;;;;5.85;2.85;;;;;;;;;;3572941;40;20041;-65
2021/06/14 08:34:33;;;;;;;7.10;3.42;;;;;;;;;;3581072;40;20490;-65
2021/06/14 08:36:59;;;;;;;9.00;3.25;;;;;;;;;;3580616;40;20050;-66
2021/06/14 08:39:24;;;;;;;7.55;3.03;;;;;;;;;;3580001;40;20584;-63
2021/06/14 08:41:50;;;;;;;8.02;2.95;;;;;;;;;;3580784;40;20040;-64
2021/06/14 08:44:16;;;;;;;6.72;3.30;;;;;;;;;;3582668;40;20065;-65
2021/06/14 08:46:42;;;;;;;9.30;2.92;;;;;;;;;;3580681;40;20045;-66
2021/06/14 08:49:07;;;;;;;5.65;3.15;;;;;;;;;;3580279;40;20024;-66
2021/06/14 08:51:33;;;;;;;5.70;3.35;;;;;;;;;;3581980;40;20037;-65
2021/06/14 08:53:59;;;;;;;5.75;2.97;;;;;;;;;;3581124;40;20419;-64
2021/06/14 08:56:27;;;;;;;9.38;2.83;;;;;;;;;;3580219;40;20134;-63
2021/06/14 08:58:54;;;;;;;6.70;3.35;;;;;;;;;;3580716;40;20044;-65
2021/06/14 09:01:19;;;;;;;5.63;3.30;;;;;;;;;;3581553;40;20041;-65
2021/06/14 09:03:45;;;;;;;11.82;3.40;;;;;;;;;;3582093;40;20036;-63
2021/06/14 09:06:11;;;;;;;6.72;2.90;;;;;;;;;;3581326;40;20387;-63
2021/06/14 09:08:37;;;;;;;5.57;2.95;;;;;;;;;;3578196;40;20463;-65
2021/06/14 09:11:04;;;;;;;5.45;3.15;;;;;;;;;;3570756;40;20174;-64
2021/06/14 09:13:32;;;;;;;7.13;3.10;;;;;;;;;;3582043;40;20037;-66
2021/06/14 09:16:13;;;;;;;4.93;2.85;;;;;;;;;;3580368;40;20110;-65
2021/06/14 09:18:39;;;;;;;;;;;;;;;;;;3581486;40;20032;-65
2021/06/14 09:21:09;;;;;;;5.10;3.03;;;;;;;;;;3580708;40;20009;-64
2021/06/14 09:23:42;;;;;;;4.72;2.60;;;;;;;;;;3581279;40;20033;-64
2021/06/14 09:26:08;;;;;;;6.38;3.63;;;;;;;;;;3581936;40;20056;-65
2021/06/14 09:28:34;;;;;;;5.57;2.83;;;;;;;;;;3582010;40;20343;-64
2021/06/14 09:31:12;;;;;;;7.28;3.83;;;;;;;;;;3581439;40;20029;-65
2021/06/14 09:33:43;;;;;;;5.40;3.22;;;;;;;;;;3579786;40;20029;-64
2021/06/14 09:36:08;;;;;;;5.22;3.00;;;;;;;;;;3570788;40;20206;-64
2021/06/14 09:38:34;;;;;;;6.03;3.00;;;;;;;;;;3581052;40;20032;-64
2021/06/14 09:40:59;;;;;;;7.35;2.80;;;;;;;;;;3580449;40;20033;-64
2021/06/14 09:43:36;;;;;;;5.63;2.80;;;;;;;;;;3581236;40;20048;-64
2021/06/14 09:46:06;;;;;;;5.85;2.65;;;;;;;;;;3579719;40;20041;-65
2021/06/14 09:48:36;;;;;;;10.20;2.78;;;;;;;;;;3581864;40;20029;-66
2021/06/14 09:51:06;;;;;;;4.00;2.03;;;;;;;;;;3581593;40;20272;-66
2021/06/14 09:53:47;;;;;;;6.55;3.13;;;;;;;;;;3581074;40;20060;-65
2021/06/14 09:56:32;;;;;;;5.18;2.75;;;;;;;;;;3580931;40;20029;-66
2021/06/14 09:58:58;;;;;;;5.22;2.65;;;;;;;;;;3578607;40;20606;-65
2021/06/14 10:01:33;;;;;;;6.13;2.53;;;;;;;;;;3580227;40;20051;-64
2021/06/14 10:04:04;;;;;;;5.28;2.83;;;;;;;;;;3573336;40;20045;-65
2021/06/14 10:06:44;;;;;;;6.00;2.75;;;;;;;;;;3580544;40;20052;-65
2021/06/14 10:09:15;;;;;;;5.50;3.00;;;;;;;;;;3580422;40;20045;-63
2021/06/14 10:11:43;;;;;;;5.05;2.63;;;;;;;;;;3580565;40;20033;-62
2021/06/14 10:14:14;;;;;;;5.07;2.72;;;;;;;;;;3582843;40;20453;-65
2021/06/14 10:16:42;;;;;;;5.00;2.60;;;;;;;;;;3581082;40;20498;-67
2021/06/14 10:19:10;;;;;;;6.50;3.08;;;;;;;;;;3580837;40;20029;-66
2021/06/14 10:21:38;;;;;;;5.68;2.97;;;;;;;;;;3580814;40;20090;-65
2021/06/14 10:24:10;;;;;;;5.00;2.72;;;;;;;;;;3579533;40;20032;-64
2021/06/14 10:26:41;;;;;;;5.40;2.55;;;;;;;;;;3578908;40;20122;-66
2021/06/14 10:29:09;;;;;;;4.80;2.33;;;;;;;;;;3580859;40;20074;-67
2021/06/14 10:31:35;;;;;;;8.80;2.92;;;;;;;;;;3580684;40;20075;-66
2021/06/14 10:34:01;;;;;;;5.40;3.00;;;;;;;;;;3581714;40;20056;-66
2021/06/14 10:36:28;;;;;;;9.88;2.40;;;;;;;;;;3581383;40;20041;-67
2021/06/14 10:38:56;;;;;;;5.82;2.92;;;;;;;;;;3579742;40;20048;-67
2021/06/14 10:41:23;;;;;;;8.57;3.33;;;;;;;;;;3578597;40;20081;-67
2021/06/14 10:43:50;;;;;;;8.90;3.00;;;;;;;;;;3580063;40;20070;-67
2021/06/14 10:46:19;;;;;;;5.25;2.88;;;;;;;;;;3581776;40;20480;-67
2021/06/14 10:48:46;;;;;;;8.68;3.15;;;;;;;;;;3572427;40;20052;-66
2021/06/14 10:51:19;;;;;;;5.82;2.83;;;;;;;;;;3581176;40;20029;-67
2021/06/14 10:53:51;;;;;;;6.07;3.10;;;;;;;;;;3581607;40;20060;-68
2021/06/14 10:56:18;;;;;;;8.07;2.83;;;;;;;;;;3579889;40;20090;-67
2021/06/14 10:58:55;;;;;;;4.80;2.70;;;;;;;;;;3580050;40;20051;-66
2021/06/14 11:01:32;;;;;;;6.63;3.28;;;;;;;;;;3580790;40;20071;-68
2021/06/14 11:03:59;;;;;;;7.68;2.78;;;;;;;;;;3580132;40;20289;-68
2021/06/14 11:06:29;;;;;;;6.25;2.72;;;;;;;;;;3574760;40;20137;-67
2021/06/14 11:08:57;;;;;;;8.68;2.95;;;;;;;;;;3581272;40;20036;-68
2021/06/14 11:11:22;;;;;;;7.13;2.80;;;;;;;;;;3579646;40;20368;-67
2021/06/14 11:13:49;;;;;;;7.68;3.17;;;;;;;;;;3580878;40;20029;-66
2021/06/14 11:16:16;;;;;;;5.03;2.50;;;;;;;;;;3580859;40;20039;-68
2021/06/14 11:18:41;;;;;;;6.35;2.83;;;;;;;;;;3581694;40;20074;-67
2021/06/14 11:21:08;;;;;;;8.60;3.08;;;;;;;;;;3582499;40;20138;-67
2021/06/14 11:23:33;;;;;;;5.40;2.85;;;;;;;;;;3581913;40;20041;-68
2021/06/14 11:25:59;;;;;;;4.57;2.38;;;;;;;;;;3574777;40;20045;-68
2021/06/14 11:28:38;;;;;;;5.32;2.40;;;;;;;;;;3584192;40;20112;-67
2021/06/14 11:31:23;;;;;;;4.40;2.80;;;;;;;;;;3576434;40;20032;-67
2021/06/14 11:33:51;;;;;;;14.48;2.95;;;;;;;;;;3581940;40;20050;-67
2021/06/14 11:36:22;;;;;;;4.78;2.53;;;;;;;;;;3580995;40;20039;-68
2021/06/14 11:38:49;;;;;;;5.28;2.35;;;;;;;;;;3581761;40;20149;-67
2021/06/14 11:41:30;;;;;;;5.82;2.58;;;;;;;;;;3581522;40;20126;-68
2021/06/14 11:44:17;;;;;;;7.45;2.75;;;;;;;;;;3582953;40;20032;-68
2021/06/14 11:46:43;;;;;;;6.55;2.63;;;;;;;;;;3581139;40;20872;-68
2021/06/14 11:49:10;;;;;;;7.68;2.78;;;;;;;;;;3581413;40;20126;-67
2021/06/14 11:51:35;;;;;;;5.55;2.72;;;;;;;;;;3580965;40;20051;-67
2021/06/14 11:54:03;;;;;;;6.13;2.63;;;;;;;;;;3581942;40;20091;-66
2021/06/14 11:56:33;;;;;;;13.23;3.17;;;;;;;;;;3582314;40;20064;-66
2021/06/14 11:58:59;;;;;;;5.85;2.92;;;;;;;;;;3581927;40;20049;-67
2021/06/14 12:01:33;;;;;;;6.90;2.50;;;;;;;;;;3581225;40;20024;-67
2021/06/14 12:04:00;;;;;;;7.82;3.05;;;;;;;;;;3583064;40;20086;-68
2021/06/14 12:06:26;;;;;;;6.97;2.95;;;;;;;;;;3581382;40;20044;-68
2021/06/14 12:08:52;;;;;;;6.07;2.75;;;;;;;;;;3582317;40;20041;-68
2021/06/14 12:11:23;;;;;;;11.27;2.97;;;;;;;;;;3580790;40;20467;-69
2021/06/14 12:13:49;;;;;;;4.60;2.50;;;;;;;;;;3582397;40;20141;-67
2021/06/14 12:16:14;;;;;;;4.38;2.67;;;;;;;;;;3572277;40;20041;-68
2021/06/14 12:18:40;;;;;;;4.68;2.50;;;;;;;;;;3580508;40;20088;-68
2021/06/14 12:21:09;;;;;;;5.70;2.63;;;;;;;;;;3581992;40;20052;-68
2021/06/14 12:23:37;;;;;;;4.57;2.42;;;;;;;;;;3571955;40;20044;-67
2021/06/14 12:26:08;;;;;;;7.03;2.67;;;;;;;;;;3582409;40;20045;-68
2021/06/14 12:28:34;;;;;;;7.93;3.30;;;;;;;;;;3581119;40;20261;-69
2021/06/14 12:31:05;;;;;;;7.00;2.42;;;;;;;;;;3580763;40;20130;-68
2021/06/14 12:33:32;;;;;;;4.65;2.58;;;;;;;;;;3565830;40;21371;-69
2021/06/14 12:35:59;;;;;;;5.10;2.33;;;;;;;;;;3572764;40;20072;-68
2021/06/14 12:38:25;;;;;;;5.00;3.13;;;;;;;;;;3570452;40;20039;-69
2021/06/14 12:40:52;;;;;;;4.68;2.50;;;;;;;;;;3580916;40;20037;-68
2021/06/14 12:43:17;;;;;;;3.67;2.00;;;;;;;;;;3579149;40;20129;-68
2021/06/14 12:45:44;;;;;;;5.97;2.70;;;;;;;;;;3579469;40;20060;-68
2021/06/14 12:48:12;;;;;;;5.75;2.50;;;;;;;;;;3580976;40;20040;-66
2021/06/14 12:50:42;;;;;;;4.43;2.10;;;;;;;;;;3578982;40;20069;-67
2021/06/14 12:53:07;;;;;;;7.93;2.70;;;;;;;;;;3579120;40;20048;-68
2021/06/14 12:55:39;;;;;;;4.18;2.30;;;;;;;;;;3579073;40;20106;-67
2021/06/14 12:58:10;;;;;;;5.13;2.67;;;;;;;;;;3582229;40;20146;-67
2021/06/14 13:00:38;;;;;;;4.07;2.35;;;;;;;;;;3572686;40;20142;-65
2021/06/14 13:03:04;;;;;;;8.07;2.55;;;;;;;;;;3580856;40;20033;-65
2021/06/14 13:05:32;;;;;;;8.40;2.45;;;;;;;;;;3580606;40;20040;-65
2021/06/14 13:07:59;;;;;;;6.32;2.50;;;;;;;;;;3581750;40;20036;-68
2021/06/14 13:10:31;;;;;;;6.03;2.10;;;;;;;;;;3582558;40;20037;-67
2021/06/14 13:12:57;;;;;;;4.15;2.40;;;;;;;;;;3581798;40;20418;-67
2021/06/14 13:15:29;;;;;;;5.70;2.20;;;;;;;;;;3578567;40;20029;-68
2021/06/14 13:17:56;;;;;;;8.63;2.42;;;;;;;;;;3580824;40;20379;-67
2021/06/14 13:20:23;;;;;;;5.05;2.10;;;;;;;;;;3571293;40;20301;-66
2021/06/14 13:22:49;;;;;;;4.32;2.50;;;;;;;;;;3580067;40;20059;-67
2021/06/14 13:25:16;;;;;;;4.50;1.90;;;;;;;;;;3573842;40;20150;-69
2021/06/14 13:27:55;;;;;;;6.32;2.60;;;;;;;;;;3572310;40;20402;-68
2021/06/14 13:30:22;;;;;;;5.00;2.53;;;;;;;;;;3581039;40;20392;-69
2021/06/14 13:33:04;;;;;;;6.57;2.53;;;;;;;;;;3580351;40;20021;-70
2021/06/14 13:35:30;;;;;;;5.10;2.50;;;;;;;;;;3580440;40;20384;-70
2021/06/14 13:37:56;;;;;;;4.28;1.75;;;;;;;;;;3580062;40;20104;-69
2021/06/14 13:40:27;;;;;;;5.75;2.50;;;;;;;;;;3580750;40;20051;-69
2021/06/14 13:43:01;;;;;;;5.00;2.67;;;;;;;;;;3580112;40;20049;-68
2021/06/14 13:45:31;;;;;;;4.47;2.25;;;;;;;;;;3571844;40;20049;-69
2021/06/14 13:48:02;;;;;;;4.75;2.50;;;;;;;;;;3571695;40;20346;-69
2021/06/14 13:50:31;;;;;;;4.38;2.47;;;;;;;;;;3580555;40;20125;-69
2021/06/14 13:53:05;;;;;;;6.55;2.78;;;;;;;;;;3580744;40;20056;-69
2021/06/14 13:55:31;;;;;;;6.00;2.65;;;;;;;;;;3581312;40;20045;-70
2021/06/14 13:57:56;;;;;;;4.93;2.45;;;;;;;;;;3581280;40;20045;-70
2021/06/14 14:00:25;;;;;;;10.38;2.78;;;;;;;;;;3579301;40;20039;-68
2021/06/14 14:02:52;;;;;;;3.70;1.77;;;;;;;;;;3579449;40;20574;-69
2021/06/14 14:05:31;;;;;;;5.63;2.38;;;;;;;;;;3581005;40;20571;-67
2021/06/14 14:07:57;;;;;;;9.95;2.75;;;;;;;;;;3578602;40;20052;-69
2021/06/14 14:10:24;;;;;;;4.75;2.25;;;;;;;;;;3579995;40;20155;-69
2021/06/14 14:12:49;;;;;;;3.80;1.55;;;;;;;;;;3579903;40;20049;-69
2021/06/14 14:15:15;;;;;;;8.43;2.55;;;;;;;;;;3578128;40;20190;-70
2021/06/14 14:17:41;;;;;;;3.85;2.17;;;;;;;;;;3573445;40;20037;-70
2021/06/14 14:20:09;;;;;;;4.13;2.15;;;;;;;;;;3582271;40;20033;-69
2021/06/14 14:22:35;;;;;;;5.95;1.77;;;;;;;;;;3573093;40;20048;-70
2021/06/14 14:25:00;;;;;;;4.45;2.45;;;;;;;;;;3581532;40;20132;-69
2021/06/14 14:27:27;;;;;;;5.20;2.55;;;;;;;;;;3581034;40;20039;-69
2021/06/14 14:29:53;;;;;;;4.78;2.45;;;;;;;;;;3571645;40;20491;-68
2021/06/14 14:32:19;;;;;;;4.50;2.53;;;;;;;;;;3579782;40;20072;-69
2021/06/14 14:34:47;;;;;;;7.20;2.67;;;;;;;;;;3581801;40;20524;-68
2021/06/14 14:37:48;;;;;;;6.93;2.25;;;;;;;;;;3579739;40;20052;-68
2021/06/14 14:40:15;;;;;;;4.10;2.00;;;;;;;;;;3579521;40;20044;-68
2021/06/14 14:42:44;;;;;;;6.43;1.95;;;;;;;;;;3580284;40;20068;-70
2021/06/14 14:45:15;;;;;;;5.72;2.20;;;;;;;;;;3580955;40;20065;-69
2021/06/14 14:47:41;;;;;;;4.72;1.92;;;;;;;;;;3572491;40;20041;-69
2021/06/14 14:50:13;;;;;;;4.22;1.75;;;;;;;;;;3582464;40;20333;-69